createdAt,value
2023-05-04T00:00:39.348Z,8.75
2023-05-04T00:01:39.314Z,8.73
2023-05-04T00:02:39.411Z,8.73
2023-05-04T00:03:39.445Z,8.75
2023-05-04T00:04:39.304Z,8.76
2023-05-04T00:05:39.246Z,8.76
2023-05-04T00:06:39.239Z,8.78
2023-05-04T00:07:39.298Z,8.76
2023-05-04T00:08:39.210Z,8.76
2023-05-04T00:09:39.208Z,8.76
2023-05-04T00:10:39.234Z,8.73
2023-05-04T00:11:39.185Z,8.71
2023-05-04T00:12:39.221Z,8.70
2023-05-04T00:13:39.201Z,8.71
2023-05-04T00:14:39.212Z,8.73
2023-05-04T00:15:39.152Z,8.73
2023-05-04T00:16:39.253Z,8.73
2023-05-04T00:17:39.192Z,8.70
2023-05-04T00:18:39.113Z,8.70
2023-05-04T00:19:39.161Z,8.65
2023-05-04T00:20:39.693Z,8.63
2023-05-04T00:21:39.084Z,8.63
2023-05-04T00:22:39.072Z,8.63
2023-05-04T00:23:39.049Z,8.63
2023-05-04T00:24:39.662Z,8.63
2023-05-04T00:25:39.039Z,8.63
2023-05-04T00:26:39.055Z,8.61
2023-05-04T00:27:38.990Z,8.58
2023-05-04T00:28:38.990Z,8.57
2023-05-04T00:29:39.010Z,8.54
2023-05-04T00:30:39.027Z,8.54
2023-05-04T00:31:39.021Z,8.49
2023-05-04T00:32:38.992Z,8.50
2023-05-04T00:33:38.958Z,8.50
2023-05-04T00:34:38.953Z,8.50
2023-05-04T00:35:38.923Z,8.50
2023-05-04T00:36:38.945Z,8.47
2023-05-04T00:37:38.899Z,8.49
2023-05-04T00:38:38.871Z,8.47
2023-05-04T00:39:38.880Z,8.49
2023-05-04T00:40:38.886Z,8.47
2023-05-04T00:41:38.872Z,8.46
2023-05-04T00:42:38.901Z,8.45
2023-05-04T00:43:38.822Z,8.42
2023-05-04T00:44:38.821Z,8.42
2023-05-04T00:45:38.844Z,8.42
2023-05-04T00:46:38.852Z,8.43
2023-05-04T00:47:38.825Z,8.42
2023-05-04T00:48:38.843Z,8.39
2023-05-04T00:49:38.777Z,8.39
2023-05-04T00:50:38.759Z,8.37
2023-05-04T00:51:38.727Z,8.37
2023-05-04T00:52:38.748Z,8.36
2023-05-04T00:53:38.731Z,8.34
2023-05-04T00:54:39.696Z,8.31
2023-05-04T00:55:38.709Z,8.28
2023-05-04T00:56:38.677Z,8.27
2023-05-04T00:57:38.732Z,8.25
2023-05-04T00:58:38.675Z,8.21
2023-05-04T00:59:38.680Z,8.20
2023-05-04T01:00:38.699Z,8.18
2023-05-04T01:01:38.707Z,8.18
2023-05-04T01:02:38.670Z,8.13
2023-05-04T01:03:38.672Z,8.13
2023-05-04T01:04:38.613Z,8.09
2023-05-04T01:05:38.623Z,8.10
2023-05-04T01:06:38.563Z,8.09
2023-05-04T01:07:38.586Z,8.09
2023-05-04T01:08:38.559Z,8.10
2023-05-04T01:09:38.583Z,8.09
2023-05-04T01:10:38.563Z,8.09
2023-05-04T01:11:38.555Z,8.09
2023-05-04T01:12:38.579Z,8.07
2023-05-04T01:13:38.505Z,8.09
2023-05-04T01:14:38.491Z,8.06
2023-05-04T01:15:38.563Z,8.04
2023-05-04T01:16:38.507Z,8.06
2023-05-04T01:17:38.447Z,8.03
2023-05-04T01:18:38.480Z,8.02
2023-05-04T01:19:38.431Z,8.02
2023-05-04T01:20:38.405Z,7.99
2023-05-04T01:21:38.438Z,7.99
2023-05-04T01:22:38.409Z,7.96
2023-05-04T01:23:38.384Z,7.95
2023-05-04T01:24:38.368Z,7.96
2023-05-04T01:25:38.403Z,7.95
2023-05-04T01:26:38.376Z,7.92
2023-05-04T01:27:38.350Z,7.94
2023-05-04T01:28:38.319Z,7.89
2023-05-04T01:29:38.341Z,7.89
2023-05-04T01:30:38.465Z,7.88
2023-05-04T01:31:38.307Z,7.86
2023-05-04T01:32:39.194Z,7.84
2023-05-04T01:33:38.298Z,7.85
2023-05-04T01:34:38.319Z,7.84
2023-05-04T01:35:38.252Z,7.84
2023-05-04T01:36:38.250Z,7.82
2023-05-04T01:37:38.230Z,7.82
2023-05-04T01:38:39.091Z,7.81
2023-05-04T01:39:38.251Z,7.79
2023-05-04T01:40:38.170Z,7.77
2023-05-04T01:41:38.201Z,7.76
2023-05-04T01:42:38.182Z,7.79
2023-05-04T01:43:38.140Z,7.77
2023-05-04T01:44:38.155Z,7.77
2023-05-04T01:45:38.175Z,7.77
2023-05-04T01:46:38.234Z,7.76
2023-05-04T01:47:38.146Z,7.76
2023-05-04T01:48:38.104Z,7.76
2023-05-04T01:49:38.117Z,7.74
2023-05-04T01:50:38.068Z,7.77
2023-05-04T01:51:38.091Z,7.77
2023-05-04T01:52:38.038Z,7.76
2023-05-04T01:53:38.051Z,7.77
2023-05-04T01:54:38.003Z,7.76
2023-05-04T01:55:38.005Z,7.77
2023-05-04T01:56:38.022Z,7.79
2023-05-04T01:57:38.047Z,7.77
2023-05-04T01:58:38.001Z,7.74
2023-05-04T01:59:38.005Z,7.73
2023-05-04T02:00:37.976Z,7.71
2023-05-04T02:01:37.969Z,7.69
2023-05-04T02:02:38.017Z,7.67
2023-05-04T02:03:38.463Z,7.66
2023-05-04T02:04:37.929Z,7.62
2023-05-04T02:05:37.914Z,7.62
2023-05-04T02:06:37.878Z,7.58
2023-05-04T02:07:37.874Z,7.57
2023-05-04T02:08:37.872Z,7.55
2023-05-04T02:09:37.896Z,7.52
2023-05-04T02:10:37.836Z,7.50
2023-05-04T02:11:37.819Z,7.50
2023-05-04T02:12:37.833Z,7.48
2023-05-04T02:13:37.831Z,7.48
2023-05-04T02:14:37.829Z,7.48
2023-05-04T02:15:37.797Z,7.48
2023-05-04T02:16:37.903Z,7.50
2023-05-04T02:17:37.794Z,7.51
2023-05-04T02:18:37.783Z,7.51
2023-05-04T02:19:37.760Z,7.48
2023-05-04T02:20:37.750Z,7.47
2023-05-04T02:21:37.694Z,7.45
2023-05-04T02:22:37.708Z,7.44
2023-05-04T02:23:37.686Z,7.41
2023-05-04T02:24:37.702Z,7.42
2023-05-04T02:25:37.713Z,7.41
2023-05-04T02:26:37.640Z,7.41
2023-05-04T02:27:37.644Z,7.41
2023-05-04T02:28:37.685Z,7.42
2023-05-04T02:29:37.638Z,7.41
2023-05-04T02:30:37.627Z,7.42
2023-05-04T02:31:37.725Z,7.42
2023-05-04T02:32:37.595Z,7.44
2023-05-04T02:33:37.585Z,7.45
2023-05-04T02:34:37.549Z,7.45
2023-05-04T02:35:37.567Z,7.47
2023-05-04T02:36:37.551Z,7.47
2023-05-04T02:37:37.569Z,7.47
2023-05-04T02:38:37.514Z,7.48
2023-05-04T02:39:37.513Z,7.48
2023-05-04T02:40:37.504Z,7.47
2023-05-04T02:41:37.493Z,7.47
2023-05-04T02:42:37.507Z,7.47
2023-05-04T02:43:37.739Z,7.45
2023-05-04T02:44:37.448Z,7.44
2023-05-04T02:45:37.497Z,7.42
2023-05-04T02:46:37.441Z,7.42
2023-05-04T02:47:37.466Z,7.41
2023-05-04T02:48:37.438Z,7.37
2023-05-04T02:49:37.437Z,7.39
2023-05-04T02:50:37.434Z,7.39
2023-05-04T02:51:37.384Z,7.37
2023-05-04T02:52:37.395Z,7.39
2023-05-04T02:53:37.345Z,7.37
2023-05-04T02:54:37.416Z,7.37
2023-05-04T02:55:37.371Z,7.37
2023-05-04T02:56:37.307Z,7.37
2023-05-04T02:57:37.308Z,7.39
2023-05-04T02:58:37.279Z,7.39
2023-05-04T02:59:37.282Z,7.39
2023-05-04T03:00:37.303Z,7.39
2023-05-04T03:01:37.409Z,7.39
2023-05-04T03:02:37.277Z,7.37
2023-05-04T03:03:37.254Z,7.34
2023-05-04T03:04:37.381Z,7.34
2023-05-04T03:05:37.237Z,7.33
2023-05-04T03:06:37.211Z,7.33
2023-05-04T03:07:37.422Z,7.34
2023-05-04T03:08:37.252Z,7.33
2023-05-04T03:09:37.219Z,7.33
2023-05-04T03:10:37.150Z,7.32
2023-05-04T03:11:37.157Z,7.30
2023-05-04T03:12:37.161Z,7.30
2023-05-04T03:13:37.147Z,7.27
2023-05-04T03:14:37.106Z,7.29
2023-05-04T03:15:37.098Z,7.30
2023-05-04T03:16:37.167Z,7.27
2023-05-04T03:17:37.092Z,7.27
2023-05-04T03:18:58.085Z,7.29
2023-05-04T03:19:37.070Z,7.29
2023-05-04T03:20:37.028Z,7.27
2023-05-04T03:21:37.010Z,7.27
2023-05-04T03:22:37.008Z,7.29
2023-05-04T03:23:37.034Z,7.27
2023-05-04T03:24:37.052Z,7.26
2023-05-04T03:25:37.012Z,7.26
2023-05-04T03:26:36.969Z,7.21
2023-05-04T03:27:36.969Z,7.19
2023-05-04T03:28:36.958Z,7.19
2023-05-04T03:29:36.991Z,7.18
2023-05-04T03:30:36.962Z,7.19
2023-05-04T03:31:36.967Z,7.19
2023-05-04T03:32:36.945Z,7.23
2023-05-04T03:33:36.886Z,7.23
2023-05-04T03:34:36.917Z,7.23
2023-05-04T03:35:36.922Z,7.24
2023-05-04T03:36:36.887Z,7.18
2023-05-04T03:37:36.866Z,7.18
2023-05-04T03:38:36.893Z,7.16
2023-05-04T03:39:36.835Z,7.16
2023-05-04T03:40:36.819Z,7.18
2023-05-04T03:41:36.852Z,7.16
2023-05-04T03:42:36.811Z,7.16
2023-05-04T03:43:36.789Z,7.16
2023-05-04T03:44:36.779Z,7.16
2023-05-04T03:45:36.780Z,7.16
2023-05-04T03:46:36.854Z,7.18
2023-05-04T03:47:36.876Z,7.16
2023-05-04T03:48:36.734Z,7.16
2023-05-04T03:49:36.756Z,7.18
2023-05-04T03:50:36.728Z,7.19
2023-05-04T03:51:36.705Z,7.19
2023-05-04T03:52:36.717Z,7.18
2023-05-04T03:53:36.792Z,7.18
2023-05-04T03:54:36.705Z,7.16
2023-05-04T03:55:36.681Z,7.18
2023-05-04T03:56:36.652Z,7.15
2023-05-04T03:57:36.640Z,7.15
2023-05-04T03:58:36.633Z,7.15
2023-05-04T03:59:36.631Z,7.15
2023-05-04T04:00:36.613Z,7.14
2023-05-04T04:01:36.649Z,7.11
2023-05-04T04:02:36.622Z,7.12
2023-05-04T04:03:36.709Z,7.12
2023-05-04T04:04:36.568Z,7.11
2023-05-04T04:05:36.559Z,7.12
2023-05-04T04:06:36.526Z,7.12
2023-05-04T04:07:36.544Z,7.14
2023-05-04T04:08:36.515Z,7.12
2023-05-04T04:09:36.502Z,7.12
2023-05-04T04:10:36.816Z,7.14
2023-05-04T04:11:36.476Z,7.15
2023-05-04T04:12:36.500Z,7.15
2023-05-04T04:13:36.508Z,7.15
2023-05-04T04:14:36.415Z,7.14
2023-05-04T04:15:36.455Z,7.11
2023-05-04T04:16:36.899Z,7.09
2023-05-04T04:17:36.440Z,7.11
2023-05-04T04:18:36.420Z,7.11
2023-05-04T04:19:36.400Z,7.11
2023-05-04T04:20:36.398Z,7.11
2023-05-04T04:21:36.424Z,7.09
2023-05-04T04:22:36.361Z,7.09
2023-05-04T04:23:36.338Z,7.08
2023-05-04T04:24:36.348Z,7.08
2023-05-04T04:25:36.363Z,7.09
2023-05-04T04:26:36.308Z,7.11
2023-05-04T04:27:36.334Z,7.11
2023-05-04T04:28:36.287Z,7.12
2023-05-04T04:29:36.268Z,7.15
2023-05-04T04:30:36.289Z,7.16
2023-05-04T04:31:36.347Z,7.16
2023-05-04T04:32:36.266Z,7.18
2023-05-04T04:33:36.284Z,7.19
2023-05-04T04:34:36.248Z,7.21
2023-05-04T04:35:36.227Z,7.21
2023-05-04T04:36:36.180Z,7.23
2023-05-04T04:37:36.211Z,7.26
2023-05-04T04:38:36.177Z,7.27
2023-05-04T04:39:36.218Z,7.29
2023-05-04T04:40:36.140Z,7.27
2023-05-04T04:41:36.158Z,7.27
2023-05-04T04:42:36.114Z,7.30
2023-05-04T04:43:36.140Z,7.32
2023-05-04T04:44:36.174Z,7.32
2023-05-04T04:45:36.099Z,7.33
2023-05-04T04:46:36.153Z,7.34
2023-05-04T04:47:36.167Z,7.37
2023-05-04T04:48:36.074Z,7.39
2023-05-04T04:49:36.106Z,7.41
2023-05-04T04:50:36.064Z,7.41
2023-05-04T04:51:36.050Z,7.42
2023-05-04T04:52:36.017Z,7.44
2023-05-04T04:53:35.985Z,7.44
2023-05-04T04:54:35.961Z,7.45
2023-05-04T04:55:35.979Z,7.44
2023-05-04T04:56:35.941Z,7.45
2023-05-04T04:57:36.024Z,7.45
2023-05-04T04:58:35.918Z,7.45
2023-05-04T04:59:35.910Z,7.45
2023-05-04T05:00:35.916Z,7.45
2023-05-04T05:01:35.904Z,7.44
2023-05-04T05:02:35.893Z,7.45
2023-05-04T05:03:35.864Z,7.47
2023-05-04T05:04:35.929Z,7.47
2023-05-04T05:05:35.856Z,7.47
2023-05-04T05:06:35.857Z,7.48
2023-05-04T05:07:35.832Z,7.47
2023-05-04T05:08:35.808Z,7.50
2023-05-04T05:09:35.806Z,7.50
2023-05-04T05:10:35.805Z,7.51
2023-05-04T05:11:35.806Z,7.52
2023-05-04T05:12:35.849Z,7.52
2023-05-04T05:13:35.851Z,7.51
2023-05-04T05:14:35.770Z,7.52
2023-05-04T05:15:35.937Z,7.54
2023-05-04T05:16:35.725Z,7.55
2023-05-04T05:17:35.761Z,7.55
2023-05-04T05:18:35.698Z,7.58
2023-05-04T05:19:35.731Z,7.57
2023-05-04T05:20:35.668Z,7.57
2023-05-04T05:21:35.711Z,7.58
2023-05-04T05:22:35.667Z,7.60
2023-05-04T05:23:35.653Z,7.62
2023-05-04T05:24:35.639Z,7.63
2023-05-04T05:25:35.634Z,7.66
2023-05-04T05:26:35.610Z,7.66
2023-05-04T05:27:35.598Z,7.66
2023-05-04T05:28:35.585Z,7.63
2023-05-04T05:29:35.579Z,7.67
2023-05-04T05:30:35.650Z,7.67
2023-05-04T05:31:35.561Z,7.69
2023-05-04T05:32:35.571Z,7.71
2023-05-04T05:33:35.534Z,7.76
2023-05-04T05:34:35.530Z,7.79
2023-05-04T05:35:35.515Z,7.81
2023-05-04T05:36:35.514Z,7.84
2023-05-04T05:37:35.494Z,7.88
2023-05-04T05:38:35.495Z,7.94
2023-05-04T05:39:35.462Z,7.96
2023-05-04T05:40:35.464Z,8.00
2023-05-04T05:41:35.437Z,8.06
2023-05-04T05:42:35.425Z,8.13
2023-05-04T05:43:35.417Z,8.21
2023-05-04T05:44:35.406Z,8.27
2023-05-04T05:45:35.418Z,8.32
2023-05-04T05:46:35.407Z,8.39
2023-05-04T05:47:35.425Z,8.47
2023-05-04T05:48:35.360Z,8.54
2023-05-04T05:49:35.348Z,8.64
2023-05-04T05:50:35.388Z,8.73
2023-05-04T05:51:35.324Z,8.80
2023-05-04T05:52:35.322Z,8.91
2023-05-04T05:53:35.301Z,8.98
2023-05-04T05:54:35.298Z,8.98
2023-05-04T05:55:35.293Z,9.06
2023-05-04T05:56:35.285Z,9.16
2023-05-04T05:57:35.262Z,9.26
2023-05-04T05:58:35.240Z,9.34
2023-05-04T05:59:35.234Z,9.41
2023-05-04T06:00:35.241Z,9.52
2023-05-04T06:01:35.213Z,9.60
2023-05-04T06:02:35.269Z,9.70
2023-05-04T06:03:35.263Z,9.78
2023-05-04T06:04:35.202Z,9.88
2023-05-04T06:05:35.202Z,9.93
2023-05-04T06:06:35.154Z,9.99
2023-05-04T06:07:35.156Z,10.06
2023-05-04T06:08:35.129Z,10.17
2023-05-04T06:09:35.252Z,10.28
2023-05-04T06:10:35.140Z,10.32
2023-05-04T06:11:35.129Z,10.38
2023-05-04T06:12:35.114Z,10.46
2023-05-04T06:13:35.082Z,10.43
2023-05-04T06:14:35.064Z,10.44
2023-05-04T06:15:35.074Z,10.43
2023-05-04T06:16:35.080Z,10.52
2023-05-04T06:17:35.068Z,10.58
2023-05-04T06:18:35.152Z,10.66
2023-05-04T06:19:34.999Z,10.73
2023-05-04T06:20:35.556Z,10.81
2023-05-04T06:21:34.984Z,10.86
2023-05-04T06:22:34.985Z,10.80
2023-05-04T06:23:34.963Z,10.72
2023-05-04T06:24:34.954Z,10.69
2023-05-04T06:25:34.954Z,10.81
2023-05-04T06:26:34.944Z,10.90
2023-05-04T06:27:34.947Z,10.93
2023-05-04T06:28:34.966Z,10.94
2023-05-04T06:29:34.971Z,10.99
2023-05-04T06:30:34.907Z,11.03
2023-05-04T06:31:35.006Z,11.11
2023-05-04T06:32:34.979Z,11.17
2023-05-04T06:33:34.926Z,11.27
2023-05-04T06:34:34.847Z,11.36
2023-05-04T06:35:34.856Z,11.44
2023-05-04T06:36:34.810Z,11.54
2023-05-04T06:37:34.795Z,11.64
2023-05-04T06:38:37.634Z,11.70
2023-05-04T06:39:34.813Z,11.78
2023-05-04T06:40:34.764Z,11.90
2023-05-04T06:41:34.775Z,11.97
2023-05-04T06:42:34.772Z,12.01
2023-05-04T06:43:34.807Z,12.01
2023-05-04T06:44:34.721Z,11.94
2023-05-04T06:45:34.792Z,11.96
2023-05-04T06:46:34.710Z,11.94
2023-05-04T06:47:34.712Z,11.87
2023-05-04T06:48:34.687Z,11.87
2023-05-04T06:49:34.699Z,11.85
2023-05-04T06:50:34.709Z,11.82
2023-05-04T06:51:34.637Z,11.77
2023-05-04T06:52:34.638Z,11.81
2023-05-04T06:53:34.621Z,11.87
2023-05-04T06:54:34.608Z,11.93
2023-05-04T06:55:34.595Z,12.00
2023-05-04T06:56:34.637Z,12.11
2023-05-04T06:57:34.582Z,12.19
2023-05-04T06:58:34.558Z,12.22
2023-05-04T06:59:34.556Z,12.26
2023-05-04T07:00:34.566Z,12.30
2023-05-04T07:01:34.575Z,12.34
2023-05-04T07:02:34.541Z,12.40
2023-05-04T07:03:34.565Z,12.44
2023-05-04T07:04:34.511Z,12.49
2023-05-04T07:05:34.514Z,12.49
2023-05-04T07:06:34.472Z,12.61
2023-05-04T07:07:34.459Z,12.67
2023-05-04T07:08:34.449Z,12.76
2023-05-04T07:09:34.433Z,12.81
2023-05-04T07:10:34.479Z,12.89
2023-05-04T07:11:34.433Z,12.91
2023-05-04T07:12:34.413Z,12.94
2023-05-04T07:13:34.392Z,12.89
2023-05-04T07:14:34.379Z,12.80
2023-05-04T07:15:34.385Z,12.80
2023-05-04T07:16:34.405Z,12.87
2023-05-04T07:17:34.385Z,12.95
2023-05-04T07:18:34.339Z,13.03
2023-05-04T07:19:34.317Z,13.01
2023-05-04T07:20:34.374Z,13.03
2023-05-04T07:21:34.301Z,13.06
2023-05-04T07:22:34.308Z,13.07
2023-05-04T07:23:34.303Z,13.13
2023-05-04T07:24:34.278Z,13.16
2023-05-04T07:25:35.098Z,13.22
2023-05-04T07:26:34.267Z,13.24
2023-05-04T07:27:34.229Z,13.24
2023-05-04T07:28:34.223Z,13.29
2023-05-04T07:29:34.195Z,13.29
2023-05-04T07:30:34.220Z,13.27
2023-05-04T07:31:34.255Z,13.31
2023-05-04T07:32:34.183Z,13.36
2023-05-04T07:33:34.156Z,13.39
2023-05-04T07:34:44.639Z,13.41
2023-05-04T07:35:34.161Z,13.35
2023-05-04T07:36:34.126Z,13.32
2023-05-04T07:37:34.124Z,13.38
2023-05-04T07:38:34.106Z,13.46
2023-05-04T07:39:34.085Z,13.53
2023-05-04T07:40:34.130Z,13.66
2023-05-04T07:41:34.069Z,13.69
2023-05-04T07:42:34.053Z,13.69
2023-05-04T07:43:34.060Z,13.76
2023-05-04T07:44:34.037Z,13.76
2023-05-04T07:45:34.019Z,13.83
2023-05-04T07:46:34.217Z,13.91
2023-05-04T07:47:34.008Z,13.93
2023-05-04T07:48:33.992Z,13.94
2023-05-04T07:49:33.974Z,14.01
2023-05-04T07:50:34.219Z,14.08
2023-05-04T07:51:33.956Z,14.12
2023-05-04T07:52:33.942Z,14.11
2023-05-04T07:53:33.931Z,14.16
2023-05-04T07:54:33.958Z,14.20
2023-05-04T07:55:33.933Z,14.19
2023-05-04T07:56:33.901Z,14.26
2023-05-04T07:57:33.885Z,14.35
2023-05-04T07:58:33.878Z,14.38
2023-05-04T07:59:33.859Z,14.46
2023-05-04T08:00:33.853Z,14.54
2023-05-04T08:01:33.906Z,14.66
2023-05-04T08:02:33.910Z,14.80
2023-05-04T08:03:33.924Z,14.94
2023-05-04T08:04:33.844Z,15.05
2023-05-04T08:05:33.814Z,15.12
2023-05-04T08:06:33.789Z,15.09
2023-05-04T08:07:33.776Z,15.00
2023-05-04T08:08:33.782Z,15.04
2023-05-04T08:09:33.748Z,15.01
2023-05-04T08:10:33.768Z,15.01
2023-05-04T08:11:33.725Z,14.95
2023-05-04T08:12:33.730Z,15.00
2023-05-04T08:13:33.703Z,15.11
2023-05-04T08:14:33.727Z,15.23
2023-05-04T08:15:33.685Z,15.33
2023-05-04T08:16:33.705Z,15.49
2023-05-04T08:17:33.665Z,15.58
2023-05-04T08:18:33.650Z,15.67
2023-05-04T08:19:33.860Z,15.70
2023-05-04T08:20:33.648Z,15.70
2023-05-04T08:21:33.602Z,15.70
2023-05-04T08:22:33.603Z,15.58
2023-05-04T08:23:33.586Z,15.55
2023-05-04T08:24:33.581Z,15.58
2023-05-04T08:25:33.940Z,15.35
2023-05-04T08:26:33.566Z,15.28
2023-05-04T08:27:33.551Z,15.41
2023-05-04T08:28:33.541Z,15.62
2023-05-04T08:29:33.521Z,15.78
2023-05-04T08:30:33.541Z,15.91
2023-05-04T08:31:33.550Z,15.99
2023-05-04T08:32:33.588Z,16.07
2023-05-04T08:33:33.475Z,16.14
2023-05-04T08:34:33.460Z,16.18
2023-05-04T08:35:33.489Z,16.22
2023-05-04T08:36:33.452Z,16.36
2023-05-04T08:37:33.436Z,16.55
2023-05-04T08:38:33.435Z,16.54
2023-05-04T08:39:33.407Z,16.57
2023-05-04T08:40:33.397Z,16.65
2023-05-04T08:41:33.409Z,16.65
2023-05-04T08:42:33.384Z,16.63
2023-05-04T08:43:33.364Z,16.65
2023-05-04T08:44:33.354Z,16.33
2023-05-04T08:45:33.373Z,16.25
2023-05-04T08:46:33.355Z,16.18
2023-05-04T08:47:33.328Z,16.34
2023-05-04T08:48:33.309Z,16.55
2023-05-04T08:49:33.309Z,16.69
2023-05-04T08:50:33.311Z,16.65
2023-05-04T08:51:33.315Z,16.52
2023-05-04T08:52:33.276Z,16.52
2023-05-04T08:53:33.253Z,16.59
2023-05-04T08:54:33.243Z,16.55
2023-05-04T08:55:33.233Z,16.57
2023-05-04T08:56:33.237Z,16.59
2023-05-04T08:57:33.205Z,16.65
2023-05-04T08:58:33.199Z,16.73
2023-05-04T08:59:33.180Z,16.90
2023-05-04T09:00:33.201Z,17.09
2023-05-04T09:01:33.319Z,17.15
2023-05-04T09:02:33.206Z,17.32
2023-05-04T09:03:33.210Z,17.43
2023-05-04T09:04:33.128Z,17.54
2023-05-04T09:05:33.106Z,17.62
2023-05-04T09:06:33.132Z,17.79
2023-05-04T09:07:33.086Z,17.94
2023-05-04T09:08:33.088Z,18.09
2023-05-04T09:09:33.063Z,18.23
2023-05-04T09:10:33.058Z,18.32
2023-05-04T09:11:33.040Z,18.44
2023-05-04T09:12:33.110Z,18.21
2023-05-04T09:13:33.023Z,18.17
2023-05-04T09:14:33.017Z,18.25
2023-05-04T09:15:33.000Z,18.31
2023-05-04T09:16:33.003Z,18.44
2023-05-04T09:17:33.011Z,18.44
2023-05-04T09:18:33.040Z,18.38
2023-05-04T09:19:32.968Z,18.38
2023-05-04T09:20:32.944Z,18.42
2023-05-04T09:21:32.924Z,18.32
2023-05-04T09:22:32.920Z,18.26
2023-05-04T09:23:32.923Z,18.29
2023-05-04T09:24:33.041Z,18.35
2023-05-04T09:25:32.918Z,18.54
2023-05-04T09:26:32.897Z,18.74
2023-05-04T09:27:32.859Z,18.90
2023-05-04T09:28:32.852Z,18.72
2023-05-04T09:29:32.848Z,18.76
2023-05-04T09:30:32.850Z,18.83
2023-05-04T09:31:32.850Z,19.02
2023-05-04T09:32:32.848Z,19.17
2023-05-04T09:33:32.802Z,19.15
2023-05-04T09:34:32.788Z,19.20
2023-05-04T09:35:34.379Z,19.23
2023-05-04T09:36:32.764Z,19.27
2023-05-04T09:37:32.744Z,19.23
2023-05-04T09:38:32.746Z,19.27
2023-05-04T09:39:32.724Z,19.32
2023-05-04T09:40:32.733Z,19.12
2023-05-04T09:41:32.730Z,19.13
2023-05-04T09:42:32.699Z,19.27
2023-05-04T09:43:32.679Z,19.27
2023-05-04T09:44:32.676Z,19.17
2023-05-04T09:45:32.658Z,19.20
2023-05-04T09:46:33.329Z,18.97
2023-05-04T09:47:32.655Z,19.01
2023-05-04T09:48:32.627Z,19.13
2023-05-04T09:49:32.685Z,19.27
2023-05-04T09:50:32.611Z,19.34
2023-05-04T09:51:32.593Z,19.47
2023-05-04T09:52:32.617Z,19.45
2023-05-04T09:53:32.572Z,19.46
2023-05-04T09:54:32.562Z,19.58
2023-05-04T09:55:32.547Z,19.70
2023-05-04T09:56:32.559Z,19.72
2023-05-04T09:57:32.526Z,19.83
2023-05-04T09:58:32.540Z,19.67
2023-05-04T09:59:32.663Z,19.67
2023-05-04T10:00:32.497Z,19.94
2023-05-04T10:01:32.535Z,20.13
2023-05-04T10:02:32.553Z,20.17
2023-05-04T10:03:32.485Z,20.19
2023-05-04T10:04:32.452Z,20.25
2023-05-04T10:05:32.505Z,20.31
2023-05-04T10:06:32.433Z,20.44
2023-05-04T10:07:32.408Z,20.37
2023-05-04T10:08:32.431Z,20.33
2023-05-04T10:09:32.387Z,20.26
2023-05-04T10:10:32.389Z,20.00
2023-05-04T10:11:32.382Z,19.72
2023-05-04T10:12:32.368Z,19.58
2023-05-04T10:13:32.374Z,19.62
2023-05-04T10:14:32.335Z,19.70
2023-05-04T10:15:32.316Z,19.80
2023-05-04T10:16:32.348Z,19.92
2023-05-04T10:17:32.307Z,19.97
2023-05-04T10:18:32.303Z,20.08
2023-05-04T10:19:32.324Z,20.13
2023-05-04T10:20:32.274Z,20.13
2023-05-04T10:21:32.266Z,20.17
2023-05-04T10:22:32.241Z,20.41
2023-05-04T10:23:32.227Z,20.56
2023-05-04T10:24:32.225Z,20.42
2023-05-04T10:25:32.236Z,20.46
2023-05-04T10:26:32.201Z,20.42
2023-05-04T10:27:32.185Z,20.60
2023-05-04T10:28:32.177Z,20.82
2023-05-04T10:29:32.157Z,20.98
2023-05-04T10:30:32.149Z,21.03
2023-05-04T10:31:32.625Z,20.87
2023-05-04T10:32:32.129Z,20.83
2023-05-04T10:33:32.120Z,20.68
2023-05-04T10:34:32.099Z,20.82
2023-05-04T10:35:32.089Z,21.05
2023-05-04T10:36:32.077Z,21.15
2023-05-04T10:37:32.108Z,21.22
2023-05-04T10:38:32.050Z,21.38
2023-05-04T10:39:32.051Z,21.46
2023-05-04T10:40:32.030Z,21.31
2023-05-04T10:41:32.025Z,21.26
2023-05-04T10:42:32.009Z,21.19
2023-05-04T10:43:32.033Z,21.16
2023-05-04T10:44:31.984Z,21.09
2023-05-04T10:45:31.987Z,21.09
2023-05-04T10:46:31.963Z,21.19
2023-05-04T10:47:31.970Z,21.30
2023-05-04T10:48:31.939Z,21.48
2023-05-04T10:49:31.969Z,21.42
2023-05-04T10:50:31.915Z,21.48
2023-05-04T10:51:42.470Z,21.49
2023-05-04T10:52:31.910Z,21.46
2023-05-04T10:53:31.907Z,21.43
2023-05-04T10:54:31.870Z,21.56
2023-05-04T10:55:31.901Z,21.68
2023-05-04T10:56:31.859Z,21.33
2023-05-04T10:57:31.848Z,21.34
2023-05-04T10:58:31.834Z,21.11
2023-05-04T10:59:31.822Z,21.08
2023-05-04T11:00:31.811Z,21.19
2023-05-04T11:01:31.827Z,21.40
2023-05-04T11:02:33.409Z,21.48
2023-05-04T11:03:31.837Z,21.59
2023-05-04T11:04:31.759Z,21.82
2023-05-04T11:05:31.751Z,21.86
2023-05-04T11:06:31.740Z,21.83
2023-05-04T11:07:31.763Z,21.93
2023-05-04T11:08:31.715Z,22.01
2023-05-04T11:09:31.711Z,22.04
2023-05-04T11:10:31.695Z,21.98
2023-05-04T11:11:31.690Z,21.74
2023-05-04T11:12:31.699Z,21.70
2023-05-04T11:13:31.703Z,21.70
2023-05-04T11:14:31.656Z,21.86
2023-05-04T11:15:31.657Z,22.06
2023-05-04T11:16:31.642Z,22.27
2023-05-04T11:17:31.728Z,22.39
2023-05-04T11:18:31.632Z,22.45
2023-05-04T11:19:31.633Z,22.59
2023-05-04T11:20:31.605Z,22.64
2023-05-04T11:21:31.574Z,22.57
2023-05-04T11:22:31.571Z,22.42
2023-05-04T11:23:31.576Z,22.38
2023-05-04T11:24:31.541Z,22.44
2023-05-04T11:25:31.553Z,22.39
2023-05-04T11:26:31.514Z,22.45
2023-05-04T11:27:31.518Z,22.56
2023-05-04T11:28:31.493Z,22.74
2023-05-04T11:29:31.481Z,22.79
2023-05-04T11:30:31.509Z,22.85
2023-05-04T11:31:31.499Z,22.96
2023-05-04T11:32:31.529Z,23.06
2023-05-04T11:33:31.449Z,22.78
2023-05-04T11:34:31.434Z,22.88
2023-05-04T11:35:31.624Z,22.78
2023-05-04T11:36:31.430Z,22.38
2023-05-04T11:37:31.399Z,22.38
2023-05-04T11:38:31.399Z,22.38
2023-05-04T11:39:31.380Z,22.30
2023-05-04T11:40:31.363Z,22.39
2023-05-04T11:41:31.375Z,22.39
2023-05-04T11:42:31.342Z,22.52
2023-05-04T11:43:31.335Z,22.69
2023-05-04T11:44:31.327Z,22.84
2023-05-04T11:45:31.358Z,22.86
2023-05-04T11:46:31.338Z,22.82
2023-05-04T11:47:31.380Z,22.75
2023-05-04T11:48:31.274Z,22.60
2023-05-04T11:49:31.267Z,22.57
2023-05-04T11:50:31.244Z,22.60
2023-05-04T11:51:31.235Z,22.74
2023-05-04T11:52:31.256Z,22.76
2023-05-04T11:53:31.229Z,22.59
2023-05-04T11:54:31.196Z,22.46
2023-05-04T11:55:31.184Z,22.35
2023-05-04T11:56:31.175Z,22.21
2023-05-04T11:57:31.184Z,22.14
2023-05-04T11:58:31.208Z,22.30
2023-05-04T11:59:31.152Z,22.52
2023-05-04T12:00:31.155Z,22.75
2023-05-04T12:01:31.154Z,22.91
2023-05-04T12:02:31.292Z,23.04
2023-05-04T12:03:44.029Z,23.23
2023-05-04T12:04:31.116Z,23.25
2023-05-04T12:05:31.112Z,23.22
2023-05-04T12:06:31.074Z,23.07
2023-05-04T12:07:31.108Z,23.15
2023-05-04T12:08:31.060Z,23.07
2023-05-04T12:09:31.048Z,22.70
2023-05-04T12:10:31.051Z,22.59
2023-05-04T12:11:31.024Z,22.63
2023-05-04T12:12:33.318Z,22.54
2023-05-04T12:13:30.997Z,22.67
2023-05-04T12:14:30.985Z,22.82
2023-05-04T12:15:30.976Z,23.14
2023-05-04T12:16:31.022Z,23.25
2023-05-04T12:17:30.988Z,23.29
2023-05-04T12:18:30.936Z,23.18
2023-05-04T12:19:30.933Z,23.11
2023-05-04T12:20:31.130Z,23.21
2023-05-04T12:21:30.906Z,23.31
2023-05-04T12:22:30.926Z,23.31
2023-05-04T12:23:30.887Z,23.38
2023-05-04T12:24:30.886Z,23.44
2023-05-04T12:25:30.870Z,23.53
2023-05-04T12:26:30.856Z,23.67
2023-05-04T12:27:30.848Z,23.68
2023-05-04T12:28:30.867Z,23.60
2023-05-04T12:29:30.827Z,23.47
2023-05-04T12:30:30.849Z,23.52
2023-05-04T12:31:30.849Z,23.44
2023-05-04T12:32:30.816Z,23.21
2023-05-04T12:33:30.805Z,23.04
2023-05-04T12:34:30.761Z,23.14
2023-05-04T12:35:30.764Z,23.31
2023-05-04T12:36:30.752Z,23.41
2023-05-04T12:37:30.741Z,23.44
2023-05-04T12:38:31.123Z,23.35
2023-05-04T12:39:30.723Z,23.22
2023-05-04T12:40:30.725Z,23.18
2023-05-04T12:41:30.701Z,23.22
2023-05-04T12:42:30.680Z,23.26
2023-05-04T12:43:30.698Z,23.57
2023-05-04T12:44:30.692Z,23.79
2023-05-04T12:45:30.656Z,24.04
2023-05-04T12:46:30.754Z,23.97
2023-05-04T12:47:30.672Z,24.14
2023-05-04T12:48:30.622Z,24.09
2023-05-04T12:49:30.612Z,24.02
2023-05-04T12:50:30.667Z,23.90
2023-05-04T12:51:30.602Z,23.86
2023-05-04T12:52:30.569Z,23.90
2023-05-04T12:53:30.566Z,23.79
2023-05-04T12:54:30.559Z,23.60
2023-05-04T12:55:30.543Z,23.59
2023-05-04T12:56:30.581Z,23.75
2023-05-04T12:57:30.536Z,23.71
2023-05-04T12:58:30.505Z,23.89
2023-05-04T12:59:30.501Z,24.26
2023-05-04T13:00:30.479Z,24.46
2023-05-04T13:01:30.531Z,24.42
2023-05-04T13:02:30.550Z,24.51
2023-05-04T13:03:30.519Z,24.61
2023-05-04T13:04:30.446Z,24.19